createdAt,value
2019-03-23T00:00:28.765Z,5.70
2019-03-23T00:02:54.786Z,5.64
2019-03-23T00:05:20.841Z,5.57
2019-03-23T00:07:46.966Z,5.54
2019-03-23T00:10:13.079Z,5.48
2019-03-23T00:12:39.203Z,5.43
2019-03-23T00:15:07.932Z,5.36
2019-03-23T00:17:33.852Z,5.32
2019-03-23T00:20:00.015Z,5.21
2019-03-23T00:22:26.131Z,5.15
2019-03-23T00:24:52.133Z,5.06
2019-03-23T00:27:18.287Z,5.01
2019-03-23T00:29:44.417Z,4.97
2019-03-23T00:32:10.560Z,4.87
2019-03-23T00:34:36.683Z,4.84
2019-03-23T00:37:04.343Z,4.76
2019-03-23T00:39:30.361Z,4.69
2019-03-23T00:41:56.388Z,4.65
2019-03-23T00:44:22.522Z,4.60
2019-03-23T00:46:48.552Z,4.55
2019-03-23T00:49:14.713Z,4.48
2019-03-23T00:51:40.863Z,4.44
2019-03-23T00:54:06.984Z,4.37
2019-03-23T00:56:33.121Z,4.28
2019-03-23T00:58:59.244Z,4.26
2019-03-23T01:01:25.279Z,4.23
2019-03-23T01:03:51.370Z,4.14
2019-03-23T01:06:17.625Z,4.03
2019-03-23T01:08:43.787Z,3.97
2019-03-23T01:11:09.951Z,3.91
2019-03-23T01:13:36.072Z,3.88
2019-03-23T01:16:02.196Z,3.80
2019-03-23T01:18:28.315Z,3.73
2019-03-23T01:20:54.355Z,3.68
2019-03-23T01:23:20.378Z,3.64
2019-03-23T01:25:46.520Z,3.62
2019-03-23T01:28:12.792Z,3.59
2019-03-23T01:30:38.820Z,3.54
2019-03-23T01:33:04.977Z,3.47
2019-03-23T01:35:31.111Z,3.43
2019-03-23T01:37:57.239Z,3.39
2019-03-23T01:40:23.272Z,3.35
2019-03-23T01:42:49.390Z,3.34
2019-03-23T01:45:15.510Z,3.31
2019-03-23T01:47:41.729Z,3.27
2019-03-23T01:50:09.862Z,3.27
2019-03-23T01:52:36.018Z,3.25
2019-03-23T01:55:04.526Z,3.21
2019-03-23T01:57:30.578Z,3.17
2019-03-23T01:59:56.611Z,3.09
2019-03-23T02:02:22.731Z,3.02
2019-03-23T02:04:48.853Z,3.01
2019-03-23T02:07:14.907Z,2.96
2019-03-23T02:09:40.938Z,2.90
2019-03-23T02:12:07.057Z,2.87
2019-03-23T02:14:33.288Z,2.87
2019-03-23T02:16:59.315Z,2.84
2019-03-23T02:19:25.350Z,2.83
2019-03-23T02:21:51.461Z,2.78
2019-03-23T02:24:18.907Z,2.74
2019-03-23T02:26:44.959Z,2.68
2019-03-23T02:29:11.014Z,2.62
2019-03-23T02:31:37.171Z,2.58
2019-03-23T02:34:03.297Z,2.57
2019-03-23T02:36:29.445Z,2.60
2019-03-23T02:38:55.370Z,2.60
2019-03-23T02:41:21.511Z,2.55
2019-03-23T02:43:47.639Z,2.52
2019-03-23T02:46:13.790Z,2.49
2019-03-23T02:48:57.253Z,2.44
2019-03-23T02:51:23.273Z,2.39
2019-03-23T02:53:49.404Z,2.32
2019-03-23T02:56:15.422Z,2.30
2019-03-23T02:58:41.545Z,2.27
2019-03-23T03:01:07.567Z,2.30
2019-03-23T03:03:33.745Z,2.30
2019-03-23T03:05:59.772Z,2.32
2019-03-23T03:08:25.930Z,2.29
2019-03-23T03:10:53.118Z,2.25
2019-03-23T03:13:19.104Z,2.19
2019-03-23T03:15:45.287Z,2.16
2019-03-23T03:18:11.419Z,2.15
2019-03-23T03:20:37.534Z,2.15
2019-03-23T03:23:03.681Z,2.11
2019-03-23T03:25:29.609Z,2.11
2019-03-23T03:27:56.882Z,2.07
2019-03-23T03:30:22.883Z,2.04
2019-03-23T03:32:48.909Z,1.99
2019-03-23T03:35:15.036Z,1.96
2019-03-23T03:37:55.411Z,1.94
2019-03-23T03:40:09.341Z,1.91
2019-03-23T03:42:35.496Z,1.89
2019-03-23T03:45:02.420Z,1.89
2019-03-23T03:47:28.564Z,1.89
2019-03-23T03:49:54.685Z,1.93
2019-03-23T03:52:20.830Z,1.91
2019-03-23T03:54:46.951Z,1.89
2019-03-23T03:57:13.020Z,1.87
2019-03-23T03:59:39.145Z,1.86
2019-03-23T04:02:05.268Z,1.88
2019-03-23T04:04:31.186Z,1.88
2019-03-23T04:06:57.302Z,1.85
2019-03-23T04:09:23.461Z,1.84
2019-03-23T04:11:49.583Z,1.84
2019-03-23T04:14:15.735Z,1.85
2019-03-23T04:16:41.867Z,1.86
2019-03-23T04:19:07.812Z,1.91
2019-03-23T04:21:33.842Z,1.93
2019-03-23T04:23:59.933Z,1.97
2019-03-23T04:26:26.099Z,2.00
2019-03-23T04:28:52.140Z,2.01
2019-03-23T04:31:18.199Z,2.06
2019-03-23T04:33:44.227Z,2.08
2019-03-23T04:36:10.373Z,2.12
2019-03-23T04:38:36.491Z,2.15
2019-03-23T04:41:02.629Z,2.16
2019-03-23T04:43:28.751Z,2.20
2019-03-23T04:45:54.765Z,2.23
2019-03-23T04:48:20.690Z,2.23
2019-03-23T04:50:46.706Z,2.28
2019-03-23T04:53:12.738Z,2.31
2019-03-23T04:55:38.870Z,2.33
2019-03-23T04:58:04.898Z,2.36
2019-03-23T05:00:30.919Z,2.40
2019-03-23T05:02:56.947Z,2.42
2019-03-23T05:05:22.987Z,2.44
2019-03-23T05:07:49.010Z,2.48
2019-03-23T05:10:15.162Z,2.51
2019-03-23T05:12:41.432Z,2.53
2019-03-23T05:15:08.058Z,2.56
2019-03-23T05:17:34.821Z,2.57
2019-03-23T05:20:00.950Z,2.60
2019-03-23T05:22:27.100Z,2.64
2019-03-23T05:24:53.231Z,2.67
2019-03-23T05:27:19.372Z,2.68
2019-03-23T05:29:45.420Z,2.71
2019-03-23T05:32:14.176Z,2.72
2019-03-23T05:34:40.231Z,2.76
2019-03-23T05:37:06.358Z,2.81
2019-03-23T05:39:32.449Z,2.86
2019-03-23T05:41:58.574Z,2.89
2019-03-23T05:44:26.920Z,2.92
2019-03-23T05:46:54.988Z,2.92
2019-03-23T05:49:21.103Z,2.94
2019-03-23T05:51:47.264Z,2.97
2019-03-23T05:54:13.345Z,3.02
2019-03-23T05:56:39.366Z,3.05
2019-03-23T05:59:05.502Z,3.09
2019-03-23T06:01:31.597Z,3.15
2019-03-23T06:03:57.616Z,3.18
2019-03-23T06:06:23.541Z,3.22
2019-03-23T06:08:55.043Z,3.14
2019-03-23T06:11:17.398Z,3.11
2019-03-23T06:13:43.446Z,3.12
2019-03-23T06:16:09.476Z,3.07
2019-03-23T06:18:35.413Z,3.03
2019-03-23T06:21:02.941Z,3.06
2019-03-23T06:23:28.915Z,3.13
2019-03-23T06:25:55.041Z,3.20
2019-03-23T06:28:21.170Z,3.24
2019-03-23T06:30:47.298Z,3.28
2019-03-23T06:33:13.439Z,3.31
2019-03-23T06:35:39.366Z,3.29
2019-03-23T06:38:05.418Z,3.30
2019-03-23T06:40:31.450Z,3.31
2019-03-23T06:42:59.990Z,3.32
2019-03-23T06:45:25.540Z,3.37
2019-03-23T06:47:51.598Z,3.48
2019-03-23T06:50:17.737Z,3.58
2019-03-23T06:52:43.864Z,3.65
2019-03-23T06:55:10.304Z,3.68
2019-03-23T06:57:36.448Z,3.70
2019-03-23T07:00:27.301Z,3.73
2019-03-23T07:02:53.419Z,3.72
2019-03-23T07:05:19.557Z,3.86
2019-03-23T07:07:45.600Z,3.92
2019-03-23T07:10:12.633Z,4.01
2019-03-23T07:12:38.664Z,4.09
2019-03-23T07:15:07.276Z,4.16
2019-03-23T07:17:33.329Z,4.21
2019-03-23T07:19:59.448Z,4.28
2019-03-23T07:22:25.562Z,4.31
2019-03-23T07:24:51.562Z,4.32
2019-03-23T07:27:17.483Z,4.38
2019-03-23T07:29:43.602Z,4.48
2019-03-23T07:32:09.740Z,4.57
2019-03-23T07:34:35.917Z,4.65
2019-03-23T07:37:02.088Z,4.66
2019-03-23T07:39:30.564Z,4.70
2019-03-23T07:41:58.568Z,4.78
2019-03-23T07:44:27.926Z,4.85
2019-03-23T07:46:53.986Z,4.94
2019-03-23T07:49:20.503Z,4.97
2019-03-23T07:51:46.930Z,5.02
2019-03-23T07:54:22.456Z,5.11
2019-03-23T07:56:48.903Z,5.17
2019-03-23T07:59:15.296Z,5.19
2019-03-23T08:01:41.769Z,5.22
2019-03-23T08:04:08.209Z,5.24
2019-03-23T08:06:34.565Z,5.30
2019-03-23T08:09:04.769Z,5.36
2019-03-23T08:11:30.921Z,5.42
2019-03-23T08:13:56.952Z,5.44
2019-03-23T08:16:23.069Z,5.52
2019-03-23T08:18:49.204Z,5.60
2019-03-23T08:21:15.233Z,5.72
2019-03-23T08:23:41.465Z,5.85
2019-03-23T08:26:07.583Z,5.87
2019-03-23T08:28:33.726Z,6.07
2019-03-23T08:31:01.884Z,6.19
2019-03-23T08:33:27.925Z,6.25
2019-03-23T08:35:54.095Z,6.34
2019-03-23T08:38:20.336Z,6.43
2019-03-23T08:40:46.519Z,6.55
2019-03-23T08:43:13.975Z,6.68
2019-03-23T08:45:40.238Z,6.80
2019-03-23T08:48:06.268Z,6.91
2019-03-23T08:50:32.422Z,7.06
2019-03-23T08:52:58.550Z,7.13
2019-03-23T08:55:24.812Z,7.23
2019-03-23T08:57:51.047Z,7.44
2019-03-23T09:00:17.208Z,7.58
2019-03-23T09:02:43.356Z,7.81
2019-03-23T09:05:09.618Z,8.01
2019-03-23T09:07:35.747Z,8.13
2019-03-23T09:10:04.879Z,8.33
2019-03-23T09:12:31.152Z,8.52
2019-03-23T09:14:57.332Z,8.74
2019-03-23T09:17:23.333Z,8.90
2019-03-23T09:19:49.457Z,9.01
2019-03-23T09:22:15.491Z,9.16
2019-03-23T09:24:41.732Z,9.28
2019-03-23T09:27:07.887Z,9.36
2019-03-23T09:29:34.152Z,9.43
2019-03-23T09:32:00.325Z,9.43
2019-03-23T09:34:26.370Z,9.64
2019-03-23T09:36:52.522Z,9.78
2019-03-23T09:39:18.534Z,9.88
2019-03-23T09:41:44.676Z,9.99
2019-03-23T09:44:10.821Z,10.06
2019-03-23T09:46:37.851Z,10.11
2019-03-23T09:49:03.975Z,10.12
2019-03-23T09:51:30.098Z,10.30
2019-03-23T09:53:56.302Z,10.41
2019-03-23T09:56:22.543Z,10.49
2019-03-23T09:58:48.667Z,10.63
2019-03-23T10:01:14.864Z,10.75
2019-03-23T10:03:42.872Z,10.80
2019-03-23T10:06:09.043Z,10.98
2019-03-23T10:08:35.670Z,11.08
2019-03-23T10:11:01.835Z,11.11
2019-03-23T10:13:27.965Z,11.15
2019-03-23T10:15:54.141Z,11.16
2019-03-23T10:18:20.286Z,11.26
2019-03-23T10:20:46.435Z,11.45
2019-03-23T10:23:12.742Z,11.65
2019-03-23T10:25:38.901Z,11.73
2019-03-23T10:28:05.095Z,11.81
2019-03-23T10:30:31.312Z,11.93
2019-03-23T10:32:57.467Z,12.01
2019-03-23T10:35:23.632Z,12.08
2019-03-23T10:37:49.844Z,12.18
2019-03-23T10:40:15.991Z,12.16
2019-03-23T10:42:44.000Z,12.23
2019-03-23T10:45:10.351Z,12.33
2019-03-23T10:47:36.645Z,12.53
2019-03-23T10:50:04.452Z,12.65
2019-03-23T10:52:30.559Z,12.73
2019-03-23T10:54:56.708Z,12.72
2019-03-23T10:57:22.822Z,12.77
2019-03-23T10:59:48.951Z,12.81
2019-03-23T11:02:15.060Z,12.90
2019-03-23T11:04:40.981Z,12.95
2019-03-23T11:07:07.129Z,12.99
2019-03-23T11:09:33.243Z,13.10
2019-03-23T11:11:59.386Z,13.20
2019-03-23T11:14:25.414Z,13.22
2019-03-23T11:16:51.544Z,13.26
2019-03-23T11:19:17.496Z,13.33
2019-03-23T11:21:45.483Z,13.35
2019-03-23T11:24:11.571Z,13.39
2019-03-23T11:26:38.145Z,13.44
2019-03-23T11:29:04.340Z,13.53
2019-03-23T11:31:31.115Z,13.59
2019-03-23T11:33:57.278Z,13.73
2019-03-23T11:36:23.417Z,13.79
2019-03-23T11:38:49.539Z,13.82
2019-03-23T11:41:15.764Z,13.84
2019-03-23T11:43:41.904Z,13.87
2019-03-23T11:46:07.927Z,13.94
2019-03-23T11:48:34.047Z,13.98
2019-03-23T11:51:00.205Z,14.09
2019-03-23T11:53:26.319Z,14.18
2019-03-23T11:55:52.472Z,14.30
2019-03-23T11:58:18.485Z,14.43
2019-03-23T12:00:44.613Z,14.58
2019-03-23T12:03:10.728Z,14.68
2019-03-23T12:05:36.790Z,14.76
2019-03-23T12:08:03.074Z,14.85
2019-03-23T12:10:29.211Z,14.93
2019-03-23T12:12:55.333Z,14.99
2019-03-23T12:15:21.466Z,15.07
2019-03-23T12:17:48.641Z,15.16
2019-03-23T12:20:18.557Z,15.22
2019-03-23T12:22:44.664Z,15.29
2019-03-23T12:25:10.992Z,15.34
2019-03-23T12:27:37.134Z,15.37
2019-03-23T12:30:09.633Z,15.46
2019-03-23T12:32:35.695Z,15.57
2019-03-23T12:35:04.556Z,15.73
2019-03-23T12:37:30.581Z,15.80
2019-03-23T12:39:56.614Z,15.79
2019-03-23T12:42:22.862Z,15.82
2019-03-23T12:44:48.991Z,15.89
2019-03-23T12:47:15.126Z,15.94
2019-03-23T12:49:41.260Z,15.95
2019-03-23T12:52:07.419Z,16.02
2019-03-23T12:54:35.007Z,16.07
2019-03-23T12:57:01.166Z,16.10
2019-03-23T12:59:27.291Z,16.15
2019-03-23T13:01:53.459Z,16.16
2019-03-23T13:04:19.616Z,16.25
2019-03-23T13:06:45.786Z,16.35
2019-03-23T13:09:12.022Z,16.44
2019-03-23T13:11:38.181Z,16.55
2019-03-23T13:14:04.212Z,16.68
2019-03-23T13:16:31.913Z,16.72
2019-03-23T13:18:58.054Z,16.73
2019-03-23T13:21:24.195Z,16.74
2019-03-23T13:23:50.215Z,16.80
2019-03-23T13:26:16.258Z,16.80
2019-03-23T13:28:42.525Z,16.78
2019-03-23T13:31:08.696Z,16.80
2019-03-23T13:33:34.848Z,16.82
2019-03-23T13:36:00.995Z,16.82
2019-03-23T13:38:27.117Z,16.83
2019-03-23T13:40:53.275Z,16.86
2019-03-23T13:43:19.516Z,16.92
2019-03-23T13:45:45.655Z,16.93
2019-03-23T13:48:11.784Z,16.88
2019-03-23T13:50:37.907Z,16.84
2019-03-23T13:53:04.073Z,16.81
2019-03-23T13:55:32.756Z,16.85
2019-03-23T13:58:13.083Z,16.92
2019-03-23T14:00:44.209Z,16.88
2019-03-23T14:03:10.553Z,16.95
2019-03-23T14:05:36.683Z,17.07
2019-03-23T14:08:02.928Z,17.13
2019-03-23T14:10:29.050Z,17.18
2019-03-23T14:12:57.251Z,17.20
2019-03-23T14:15:23.404Z,17.25
2019-03-23T14:17:51.389Z,17.30
2019-03-23T14:20:17.556Z,17.34
2019-03-23T14:22:43.575Z,17.29
2019-03-23T14:25:09.713Z,17.29
2019-03-23T14:27:37.155Z,17.26
2019-03-23T14:30:05.847Z,17.29
2019-03-23T14:32:31.918Z,17.31
2019-03-23T14:35:01.140Z,17.31
2019-03-23T14:37:27.657Z,17.29
2019-03-23T14:39:53.957Z,17.28
2019-03-23T14:42:20.077Z,17.29
2019-03-23T14:44:46.418Z,17.31
2019-03-23T14:47:12.683Z,17.32
2019-03-23T14:49:38.950Z,17.37
2019-03-23T14:52:05.376Z,17.37
2019-03-23T14:54:31.718Z,17.37
2019-03-23T14:56:57.993Z,17.33
2019-03-23T14:59:24.432Z,17.33
2019-03-23T15:01:50.704Z,17.31
2019-03-23T15:04:16.852Z,17.32
2019-03-23T15:06:46.565Z,17.32
2019-03-23T15:09:12.673Z,17.31
2019-03-23T15:11:38.903Z,17.31
2019-03-23T15:14:05.145Z,17.31
2019-03-23T15:16:31.371Z,17.26
2019-03-23T15:18:57.668Z,17.22
2019-03-23T15:21:23.883Z,17.14
2019-03-23T15:23:49.989Z,17.00
2019-03-23T15:26:16.186Z,16.83
2019-03-23T15:28:42.344Z,16.75
2019-03-23T15:31:08.598Z,16.70
2019-03-23T15:33:34.835Z,16.67
2019-03-23T15:36:01.078Z,16.60
2019-03-23T15:38:27.358Z,16.56
2019-03-23T15:40:53.659Z,16.50
2019-03-23T15:43:19.890Z,16.43
2019-03-23T15:45:46.016Z,16.30
2019-03-23T15:48:12.334Z,16.21
2019-03-23T15:50:38.514Z,16.07
2019-03-23T15:53:04.790Z,15.96
2019-03-23T15:55:32.059Z,15.85
2019-03-23T15:57:58.353Z,15.69
2019-03-23T16:00:24.515Z,15.53
2019-03-23T16:02:51.045Z,15.42
2019-03-23T16:05:17.347Z,15.26
2019-03-23T16:07:47.830Z,15.09
2019-03-23T16:10:16.705Z,14.97
2019-03-23T16:12:46.819Z,14.87
2019-03-23T16:15:22.904Z,14.75
2019-03-23T16:17:49.605Z,14.56
2019-03-23T16:20:27.830Z,14.39
2019-03-23T16:22:59.629Z,14.32
2019-03-23T16:25:25.735Z,14.23
2019-03-23T16:27:52.037Z,14.15
2019-03-23T16:30:29.986Z,13.98
2019-03-23T16:32:56.243Z,13.77
2019-03-23T16:35:22.418Z,13.64
2019-03-23T16:37:48.748Z,13.51
2019-03-23T16:40:14.950Z,13.36
2019-03-23T16:42:45.137Z,13.25
2019-03-23T16:45:09.632Z,13.08
2019-03-23T16:47:35.993Z,13.03
2019-03-23T16:50:04.079Z,12.99
2019-03-23T16:52:30.315Z,12.89
2019-03-23T16:54:56.613Z,12.72
2019-03-23T16:57:22.863Z,12.59
2019-03-23T16:59:49.147Z,12.47
2019-03-23T17:02:15.288Z,12.33
2019-03-23T17:04:41.601Z,12.25
2019-03-23T17:07:07.839Z,12.15
2019-03-23T17:09:35.745Z,11.96
2019-03-23T17:12:02.028Z,11.81
2019-03-23T17:14:28.275Z,11.66
2019-03-23T17:16:54.510Z,11.56
2019-03-23T17:19:20.818Z,11.48
2019-03-23T17:21:46.858Z,11.40
2019-03-23T17:24:12.986Z,11.29
2019-03-23T17:26:39.227Z,11.17
2019-03-23T17:29:05.403Z,11.07
2019-03-23T17:31:31.662Z,10.98
2019-03-23T17:33:57.895Z,10.87
2019-03-23T17:36:24.002Z,10.76
2019-03-23T17:38:50.310Z,10.64
2019-03-23T17:41:19.538Z,10.48
2019-03-23T17:43:45.805Z,10.39
2019-03-23T17:46:11.916Z,10.33
2019-03-23T17:48:38.357Z,10.26
2019-03-23T17:51:06.828Z,10.16
2019-03-23T17:53:32.634Z,10.03
2019-03-23T17:55:58.891Z,9.90
2019-03-23T17:58:33.485Z,9.85
2019-03-23T18:00:59.951Z,9.78
2019-03-23T18:03:26.238Z,9.65
2019-03-23T18:05:52.379Z,9.57
2019-03-23T18:08:25.384Z,9.48
2019-03-23T18:10:51.675Z,9.40
2019-03-23T18:13:17.952Z,9.30
2019-03-23T18:15:48.747Z,9.19
2019-03-23T18:18:14.897Z,9.09
2019-03-23T18:20:41.032Z,9.00
2019-03-23T18:23:07.342Z,8.92
2019-03-23T18:25:33.607Z,8.87
2019-03-23T18:27:59.709Z,8.80
2019-03-23T18:30:42.529Z,8.72
2019-03-23T18:33:11.036Z,8.65
2019-03-23T18:35:37.186Z,8.56
2019-03-23T18:38:03.922Z,8.46
2019-03-23T18:40:31.644Z,8.38
2019-03-23T18:42:57.787Z,8.28
2019-03-23T18:45:23.897Z,8.22
2019-03-23T18:47:50.198Z,8.12
2019-03-23T18:50:16.307Z,7.92
2019-03-23T18:52:42.552Z,7.89
2019-03-23T18:55:08.791Z,7.79
2019-03-23T18:57:35.036Z,7.72
2019-03-23T19:00:01.367Z,7.67
2019-03-23T19:02:27.528Z,7.64
2019-03-23T19:04:53.705Z,7.60
2019-03-23T19:07:19.953Z,7.55
2019-03-23T19:09:46.144Z,7.47
2019-03-23T19:12:14.445Z,7.40
2019-03-23T19:14:40.581Z,7.31
2019-03-23T19:17:06.728Z,7.25
2019-03-23T19:19:35.678Z,7.19
2019-03-23T19:22:01.905Z,7.17
2019-03-23T19:24:28.061Z,7.10
2019-03-23T19:26:54.292Z,7.06
2019-03-23T19:29:20.451Z,6.98
2019-03-23T19:31:46.678Z,6.92
2019-03-23T19:34:12.844Z,6.87
2019-03-23T19:36:38.966Z,6.80
2019-03-23T19:39:06.393Z,6.75
2019-03-23T19:41:32.559Z,6.69
2019-03-23T19:43:58.829Z,6.62
2019-03-23T19:46:24.980Z,6.61
2019-03-23T19:48:51.103Z,6.53
2019-03-23T19:51:17.227Z,6.45
2019-03-23T19:53:43.385Z,6.40
2019-03-23T19:56:09.428Z,6.34
2019-03-23T19:58:35.565Z,6.31
2019-03-23T20:01:01.706Z,6.19
2019-03-23T20:03:27.877Z,6.20
2019-03-23T20:05:53.989Z,6.17
2019-03-23T20:08:20.139Z,6.13
2019-03-23T20:10:46.266Z,5.96
2019-03-23T20:13:12.497Z,5.95
2019-03-23T20:15:38.622Z,5.96
2019-03-23T20:18:04.810Z,5.94
2019-03-23T20:20:30.944Z,5.92
2019-03-23T20:22:57.075Z,5.90
2019-03-23T20:25:23.212Z,5.94
2019-03-23T20:27:49.334Z,5.87
2019-03-23T20:30:15.676Z,5.79
2019-03-23T20:32:41.802Z,5.75
2019-03-23T20:35:08.341Z,5.72
2019-03-23T20:37:34.457Z,5.67
2019-03-23T20:40:00.601Z,5.61
2019-03-23T20:42:26.889Z,5.57
2019-03-23T20:44:53.009Z,5.48
2019-03-23T20:47:19.254Z,5.45
2019-03-23T20:49:45.975Z,5.46
2019-03-23T20:52:12.102Z,5.42
2019-03-23T20:54:38.273Z,5.40
2019-03-23T20:57:04.401Z,5.34
2019-03-23T20:59:31.810Z,5.32
2019-03-23T21:01:58.067Z,5.28
2019-03-23T21:04:24.208Z,5.23
2019-03-23T21:06:50.349Z,5.17
2019-03-23T21:09:16.459Z,5.13
2019-03-23T21:11:42.580Z,5.08
2019-03-23T21:14:08.717Z,5.02
2019-03-23T21:16:34.849Z,4.97
2019-03-23T21:19:00.868Z,4.91
2019-03-23T21:21:27.004Z,4.86
2019-03-23T21:23:53.133Z,4.84
2019-03-23T21:26:19.270Z,4.82
2019-03-23T21:28:46.245Z,4.79
2019-03-23T21:31:12.405Z,4.74
2019-03-23T21:33:39.173Z,4.76
2019-03-23T21:36:05.399Z,4.77
2019-03-23T21:38:31.435Z,4.75
2019-03-23T21:40:57.519Z,4.72
2019-03-23T21:43:23.634Z,4.72
2019-03-23T21:45:49.775Z,4.69
2019-03-23T21:48:15.897Z,4.65
2019-03-23T21:50:47.326Z,4.61
2019-03-23T21:53:10.128Z,4.54
2019-03-23T21:55:36.265Z,4.46
2019-03-23T21:58:02.417Z,4.42
2019-03-23T22:00:30.189Z,4.44
2019-03-23T22:02:56.325Z,4.44
2019-03-23T22:05:22.524Z,4.42
2019-03-23T22:07:48.753Z,4.40
2019-03-23T22:10:14.876Z,4.35
2019-03-23T22:12:41.034Z,4.31
2019-03-23T22:15:07.856Z,4.29
2019-03-23T22:17:34.044Z,4.25
2019-03-23T22:20:00.298Z,4.16
2019-03-23T22:22:26.540Z,4.13
2019-03-23T22:24:52.672Z,4.10
2019-03-23T22:27:20.628Z,4.10
2019-03-23T22:29:46.764Z,4.06
2019-03-23T22:32:12.910Z,4.02
2019-03-23T22:34:38.951Z,3.98
2019-03-23T22:37:05.002Z,3.95
2019-03-23T22:39:31.110Z,3.91
2019-03-23T22:41:57.261Z,3.89
2019-03-23T22:44:23.411Z,3.85
2019-03-23T22:46:49.456Z,3.83
2019-03-23T22:49:15.592Z,3.79
2019-03-23T22:51:41.729Z,3.76
2019-03-23T22:54:09.731Z,3.70
2019-03-23T22:56:35.865Z,3.65
2019-03-23T22:59:01.985Z,3.62
2019-03-23T23:01:28.126Z,3.59
2019-03-23T23:03:54.253Z,3.57
2019-03-23T23:06:20.481Z,3.59
2019-03-23T23:08:46.640Z,3.61
2019-03-23T23:11:14.203Z,3.59
2019-03-23T23:13:40.293Z,3.57
2019-03-23T23:16:06.740Z,3.55
2019-03-23T23:18:33.978Z,3.50
2019-03-23T23:20:59.995Z,3.47
2019-03-23T23:23:26.174Z,3.42
2019-03-23T23:25:52.202Z,3.36
2019-03-23T23:28:18.354Z,3.33
2019-03-23T23:30:44.480Z,3.27
2019-03-23T23:33:10.599Z,3.23
2019-03-23T23:35:36.732Z,3.18
2019-03-23T23:38:02.851Z,3.18
2019-03-23T23:40:28.982Z,3.20
2019-03-23T23:42:55.032Z,3.17
2019-03-23T23:45:21.168Z,3.15
2019-03-23T23:47:47.335Z,3.17
2019-03-23T23:50:13.464Z,3.14
2019-03-23T23:52:39.593Z,3.08
2019-03-23T23:55:06.063Z,3.05
2019-03-23T23:57:32.196Z,3.02
2019-03-23T23:59:58.379Z,2.98
